createdAt,value
2023-03-17T00:00:45.460Z,97466.00
2023-03-17T00:03:22.864Z,97463.00
2023-03-17T00:05:53.372Z,97465.00
2023-03-17T00:08:27.216Z,97458.00
2023-03-17T00:10:56.261Z,97463.00
2023-03-17T00:13:25.046Z,97464.00
2023-03-17T00:16:00.187Z,97467.00
2023-03-17T00:18:30.416Z,97462.00
2023-03-17T00:20:59.843Z,97450.00
2023-03-17T00:23:29.874Z,97450.00
2023-03-17T00:25:58.059Z,97450.00
2023-03-17T00:28:28.787Z,97449.00
2023-03-17T00:31:00.827Z,97447.00
2023-03-17T00:33:33.118Z,97439.00
2023-03-17T00:36:02.092Z,97431.00
2023-03-17T00:38:31.808Z,97434.00
2023-03-17T00:41:00.146Z,97442.00
2023-03-17T00:43:30.585Z,97423.00
2023-03-17T00:45:59.003Z,97428.00
2023-03-17T00:48:29.823Z,97414.00
2023-03-17T00:50:57.994Z,97409.00
2023-03-17T00:53:31.385Z,97407.00
2023-03-17T00:56:00.786Z,97401.00
2023-03-17T00:58:32.597Z,97403.00
2023-03-17T01:01:02.210Z,97400.00
2023-03-17T01:03:30.998Z,97411.00
2023-03-17T01:05:59.561Z,97388.00
2023-03-17T01:08:29.990Z,97404.00
2023-03-17T01:11:00.396Z,97406.00
2023-03-17T01:13:29.188Z,97406.00
2023-03-17T01:15:57.673Z,97385.00
2023-03-17T01:18:27.027Z,97392.00
2023-03-17T01:20:55.239Z,97388.00
2023-03-17T01:23:23.532Z,97378.00
2023-03-17T01:25:51.731Z,97375.00
2023-03-17T01:28:22.089Z,97371.00
2023-03-17T01:30:51.013Z,97373.00
2023-03-17T01:33:19.313Z,97374.00
2023-03-17T01:35:47.506Z,97374.00
2023-03-17T01:38:16.204Z,97365.00
2023-03-17T01:40:49.435Z,97369.00
2023-03-17T01:43:23.985Z,97375.00
2023-03-17T01:46:25.762Z,97366.00
2023-03-17T01:49:19.266Z,97373.00
2023-03-17T01:52:06.160Z,97360.00
2023-03-17T01:54:40.877Z,97344.00
2023-03-17T01:57:14.618Z,97358.00
2023-03-17T01:59:51.340Z,97357.00
2023-03-17T02:02:25.560Z,97354.00
2023-03-17T02:04:54.313Z,97365.00
2023-03-17T02:07:26.529Z,97365.00
2023-03-17T02:09:57.045Z,97366.00
2023-03-17T02:12:30.254Z,97367.00
2023-03-17T02:15:00.064Z,97365.00
2023-03-17T02:17:29.954Z,97349.00
2023-03-17T02:19:58.339Z,97350.00
2023-03-17T02:22:28.228Z,97351.00
2023-03-17T02:25:00.742Z,97352.00
2023-03-17T02:27:34.950Z,97350.00
2023-03-17T02:30:03.267Z,97346.00
2023-03-17T02:32:31.451Z,97353.00
2023-03-17T02:34:59.648Z,97334.00
2023-03-17T02:37:29.289Z,97343.00
2023-03-17T02:39:57.761Z,97325.00
2023-03-17T02:42:25.937Z,97338.00
2023-03-17T02:44:54.184Z,97335.00
2023-03-17T02:47:22.632Z,97338.00
2023-03-17T02:49:51.384Z,97325.00
2023-03-17T02:52:19.660Z,97338.00
2023-03-17T02:54:49.416Z,97328.00
2023-03-17T02:57:17.627Z,97329.00
2023-03-17T02:59:45.812Z,97330.00
2023-03-17T03:02:14.202Z,97325.00
2023-03-17T03:04:43.050Z,97326.00
2023-03-17T03:07:12.494Z,97321.00
2023-03-17T03:09:41.937Z,97317.00
2023-03-17T03:12:12.066Z,97322.00
2023-03-17T03:14:40.827Z,97327.00
2023-03-17T03:17:09.622Z,97322.00
2023-03-17T03:19:38.143Z,97311.00
2023-03-17T03:22:06.510Z,97317.00
2023-03-17T03:24:34.712Z,97317.00
2023-03-17T03:27:02.909Z,97324.00
2023-03-17T03:29:32.430Z,97334.00
2023-03-17T03:32:00.729Z,97337.00
2023-03-17T03:34:29.136Z,97335.00
2023-03-17T03:36:57.493Z,97339.00
2023-03-17T03:39:25.705Z,97319.00
2023-03-17T03:41:57.224Z,97315.00
2023-03-17T03:44:25.901Z,97325.00
2023-03-17T03:46:55.387Z,97324.00
2023-03-17T03:49:24.334Z,97307.00
2023-03-17T03:51:52.486Z,97315.00
2023-03-17T03:54:20.758Z,97319.00
2023-03-17T03:56:48.899Z,97304.00
2023-03-17T03:59:17.316Z,97320.00
2023-03-17T04:01:45.650Z,97310.00
2023-03-17T04:04:15.382Z,97302.00
2023-03-17T04:06:43.564Z,97293.00
2023-03-17T04:09:12.616Z,97300.00
2023-03-17T04:11:40.795Z,97296.00
2023-03-17T04:14:08.959Z,97312.00
2023-03-17T04:16:37.181Z,97299.00
2023-03-17T04:19:05.434Z,97323.00
2023-03-17T04:21:34.954Z,97322.00
2023-03-17T04:24:05.106Z,97330.00
2023-03-17T04:26:33.421Z,97336.00
2023-03-17T04:29:01.647Z,97310.00
2023-03-17T04:31:29.788Z,97306.00
2023-03-17T04:33:57.946Z,97293.00
2023-03-17T04:36:27.026Z,97293.00
2023-03-17T04:38:56.540Z,97292.00
2023-03-17T04:41:24.679Z,97295.00
2023-03-17T04:43:52.762Z,97285.00
2023-03-17T04:46:20.856Z,97279.00
2023-03-17T04:48:48.980Z,97290.00
2023-03-17T04:51:17.193Z,97292.00
2023-03-17T04:53:46.180Z,97282.00
2023-03-17T04:56:16.120Z,97291.00
2023-03-17T04:58:44.355Z,97296.00
2023-03-17T05:01:12.625Z,97283.00
2023-03-17T05:03:41.122Z,97286.00
2023-03-17T05:06:09.438Z,97277.00
2023-03-17T05:08:37.889Z,97302.00
2023-03-17T05:11:06.636Z,97298.00
2023-03-17T05:13:36.221Z,97305.00
2023-03-17T05:16:04.694Z,97284.00
2023-03-17T05:18:32.847Z,97279.00
2023-03-17T05:21:01.109Z,97273.00
2023-03-17T05:23:29.492Z,97277.00
2023-03-17T05:25:57.658Z,97292.00
2023-03-17T05:28:26.667Z,97277.00
2023-03-17T05:30:56.688Z,97285.00
2023-03-17T05:33:24.904Z,97294.00
2023-03-17T05:35:53.795Z,97280.00
2023-03-17T05:38:21.969Z,97283.00
2023-03-17T05:40:52.805Z,97285.00
2023-03-17T05:43:20.997Z,97282.00
2023-03-17T05:45:50.494Z,97288.00
2023-03-17T05:48:20.004Z,97289.00
2023-03-17T05:50:48.434Z,97277.00
2023-03-17T05:53:17.387Z,97271.00
2023-03-17T05:55:48.124Z,97280.00
2023-03-17T05:58:16.990Z,97279.00
2023-03-17T06:00:45.447Z,97269.00
2023-03-17T06:03:13.992Z,97276.00
2023-03-17T06:05:43.610Z,97286.00
2023-03-17T06:08:12.218Z,97278.00
2023-03-17T06:10:41.260Z,97273.00
2023-03-17T06:13:09.523Z,97267.00
2023-03-17T06:15:37.983Z,97268.00
2023-03-17T06:18:07.399Z,97264.00
2023-03-17T06:20:36.623Z,97255.00
2023-03-17T06:23:06.810Z,97258.00
2023-03-17T06:25:37.010Z,97263.00
2023-03-17T06:28:06.699Z,97253.00
2023-03-17T06:30:38.742Z,97241.00
2023-03-17T06:33:08.424Z,97254.00
2023-03-17T06:35:37.218Z,97244.00
2023-03-17T06:38:06.996Z,97252.00
2023-03-17T06:40:35.123Z,97233.00
2023-03-17T06:43:03.438Z,97233.00
2023-03-17T06:45:33.738Z,97240.00
2023-03-17T06:48:02.330Z,97249.00
2023-03-17T06:50:30.757Z,97256.00
2023-03-17T06:52:58.896Z,97254.00
2023-03-17T06:55:29.073Z,97275.00
2023-03-17T06:57:58.933Z,97273.00
2023-03-17T07:00:28.271Z,97274.00
2023-03-17T07:02:56.471Z,97277.00
2023-03-17T07:05:24.815Z,97279.00
2023-03-17T07:07:53.471Z,97285.00
2023-03-17T07:10:23.076Z,97291.00
2023-03-17T07:12:52.771Z,97305.00
2023-03-17T07:15:22.020Z,97316.00
2023-03-17T07:17:50.282Z,97310.00
2023-03-17T07:20:18.951Z,97301.00
2023-03-17T07:22:47.091Z,97309.00
2023-03-17T07:25:15.366Z,97295.00
2023-03-17T07:27:43.558Z,97294.00
2023-03-17T07:30:18.760Z,97313.00
2023-03-17T07:32:47.577Z,97302.00
2023-03-17T07:35:16.385Z,97302.00
2023-03-17T07:37:44.585Z,97291.00
2023-03-17T07:40:13.904Z,97297.00
2023-03-17T07:42:42.297Z,97290.00
2023-03-17T07:45:12.979Z,97281.00
2023-03-17T07:47:41.576Z,97289.00
2023-03-17T07:50:11.149Z,97283.00
2023-03-17T07:52:39.430Z,97285.00
2023-03-17T07:55:10.574Z,97277.00
2023-03-17T07:57:39.049Z,97278.00
2023-03-17T08:00:10.640Z,97274.00
2023-03-17T08:02:42.801Z,97268.00
2023-03-17T08:05:12.109Z,97274.00
2023-03-17T08:07:40.468Z,97278.00
2023-03-17T08:10:11.675Z,97278.00
2023-03-17T08:12:41.651Z,97268.00
2023-03-17T08:15:11.268Z,97272.00
2023-03-17T08:17:40.160Z,97255.00
2023-03-17T08:20:12.236Z,97247.00
2023-03-17T08:22:40.650Z,97248.00
2023-03-17T08:25:11.484Z,97239.00
2023-03-17T08:27:40.043Z,97243.00
2023-03-17T08:30:10.055Z,97252.00
2023-03-17T08:32:38.492Z,97246.00
2023-03-17T08:35:11.752Z,97244.00
2023-03-17T08:37:39.955Z,97235.00
2023-03-17T08:40:09.974Z,97235.00
2023-03-17T08:42:38.524Z,97232.00
2023-03-17T08:45:07.872Z,97233.00
2023-03-17T08:47:36.060Z,97237.00
2023-03-17T08:50:08.475Z,97240.00
2023-03-17T08:52:38.558Z,97228.00
2023-03-17T08:55:08.899Z,97234.00
2023-03-17T08:57:37.930Z,97232.00
2023-03-17T09:00:11.060Z,97241.00
2023-03-17T09:02:39.614Z,97241.00
2023-03-17T09:05:09.397Z,97243.00
2023-03-17T09:07:39.069Z,97239.00
2023-03-17T09:10:10.858Z,97245.00
2023-03-17T09:12:39.450Z,97248.00
2023-03-17T09:15:10.853Z,97244.00
2023-03-17T09:17:39.252Z,97230.00
2023-03-17T09:20:09.289Z,97226.00
2023-03-17T09:22:38.895Z,97231.00
2023-03-17T09:25:08.060Z,97216.00
2023-03-17T09:27:36.362Z,97220.00
2023-03-17T09:30:05.864Z,97226.00
2023-03-17T09:32:34.097Z,97221.00
2023-03-17T09:35:03.847Z,97230.00
2023-03-17T09:37:32.412Z,97226.00
2023-03-17T09:40:04.738Z,97226.00
2023-03-17T09:42:44.298Z,97233.00
2023-03-17T09:45:26.114Z,97230.00
2023-03-17T09:48:12.990Z,97215.00
2023-03-17T09:50:49.807Z,97212.00
2023-03-17T09:53:22.902Z,97232.00
2023-03-17T09:55:58.277Z,97213.00
2023-03-17T09:58:33.187Z,97217.00
2023-03-17T10:01:05.059Z,97207.00
2023-03-17T10:03:34.168Z,97210.00
2023-03-17T10:06:37.562Z,97207.00
2023-03-17T10:09:27.274Z,97201.00
2023-03-17T10:12:09.694Z,97202.00
2023-03-17T10:14:59.451Z,97196.00
2023-03-17T10:17:33.406Z,97207.00
2023-03-17T10:20:11.318Z,97199.00
2023-03-17T10:22:46.139Z,97201.00
2023-03-17T10:25:18.189Z,97196.00
2023-03-17T10:27:58.076Z,97206.00
2023-03-17T10:30:27.365Z,97194.00
2023-03-17T10:33:01.839Z,97200.00
2023-03-17T10:35:35.898Z,97197.00
2023-03-17T10:38:17.058Z,97197.00
2023-03-17T10:40:48.839Z,97202.00
2023-03-17T10:43:24.116Z,97191.00
2023-03-17T10:46:04.489Z,97187.00
2023-03-17T10:48:38.497Z,97197.00
2023-03-17T10:51:11.101Z,97192.00
2023-03-17T10:53:43.747Z,97194.00
2023-03-17T10:56:24.986Z,97180.00
2023-03-17T10:58:56.900Z,97183.00
2023-03-17T11:01:36.646Z,97185.00
2023-03-17T11:04:21.786Z,97177.00
2023-03-17T11:06:52.396Z,97183.00
2023-03-17T11:09:21.508Z,97175.00
2023-03-17T11:12:05.148Z,97182.00
2023-03-17T11:14:35.290Z,97160.00
2023-03-17T11:17:17.630Z,97168.00
2023-03-17T11:20:04.137Z,97170.00
2023-03-17T11:22:40.007Z,97165.00
2023-03-17T11:25:15.168Z,97162.00
2023-03-17T11:27:49.987Z,97160.00
2023-03-17T11:30:32.752Z,97152.00
2023-03-17T11:33:14.640Z,97154.00
2023-03-17T11:35:55.975Z,97149.00
2023-03-17T11:38:28.179Z,97138.00
2023-03-17T11:41:34.975Z,97130.00
2023-03-17T11:44:40.236Z,97126.00
2023-03-17T11:47:28.821Z,97131.00
2023-03-17T11:50:08.669Z,97124.00
2023-03-17T11:52:53.426Z,97131.00
2023-03-17T11:55:28.441Z,97119.00
2023-03-17T11:58:02.419Z,97121.00
2023-03-17T12:00:35.192Z,97126.00
2023-03-17T12:03:17.678Z,97117.00
2023-03-17T12:05:52.068Z,97117.00
2023-03-17T12:08:32.386Z,97112.00
2023-03-17T12:11:06.634Z,97113.00
2023-03-17T12:13:41.614Z,97115.00
2023-03-17T12:16:17.306Z,97111.00
2023-03-17T12:18:59.105Z,97114.00
2023-03-17T12:21:36.849Z,97110.00
2023-03-17T12:24:14.629Z,97103.00
2023-03-17T12:26:55.959Z,97107.00
2023-03-17T12:29:37.712Z,97102.00
2023-03-17T12:32:15.471Z,97102.00
2023-03-17T12:34:52.394Z,97092.00
2023-03-17T12:37:22.600Z,97090.00
2023-03-17T12:40:00.655Z,97089.00
2023-03-17T12:42:43.400Z,97084.00
2023-03-17T12:45:53.231Z,97076.00
2023-03-17T12:49:14.542Z,97080.00
2023-03-17T12:52:07.704Z,97076.00
2023-03-17T12:54:39.619Z,97075.00
2023-03-17T12:57:18.233Z,97070.00
2023-03-17T12:59:50.278Z,97066.00
2023-03-17T13:02:33.851Z,97060.00
2023-03-17T13:05:08.048Z,97056.00
2023-03-17T13:07:47.694Z,97053.00
2023-03-17T13:10:39.869Z,97054.00
2023-03-17T13:13:36.149Z,97052.00
2023-03-17T13:16:06.842Z,97053.00
2023-03-17T13:19:01.357Z,97039.00
2023-03-17T13:21:32.909Z,97038.00
2023-03-17T13:24:48.028Z,97038.00
2023-03-17T13:27:48.333Z,97030.00
2023-03-17T13:30:57.132Z,97021.00
2023-03-17T13:33:32.815Z,97022.00
2023-03-17T13:36:35.341Z,97025.00
2023-03-17T13:39:45.933Z,97023.00
2023-03-17T13:43:00.008Z,97019.00
2023-03-17T13:45:38.585Z,97018.00
2023-03-17T13:48:39.004Z,97019.00
2023-03-17T13:51:21.995Z,97020.00
2023-03-17T13:53:56.392Z,97018.00
2023-03-17T13:56:30.340Z,97026.00
2023-03-17T13:59:15.177Z,97013.00
2023-03-17T14:01:51.201Z,97021.00
2023-03-17T14:04:25.451Z,97014.00
2023-03-17T14:07:00.470Z,97008.00
2023-03-17T14:09:37.142Z,97007.00
2023-03-17T14:12:14.056Z,96999.00
2023-03-17T14:14:53.849Z,97001.00
2023-03-17T14:17:27.023Z,96992.00
2023-03-17T14:20:06.925Z,96988.00
2023-03-17T14:22:44.935Z,96983.00
2023-03-17T14:25:19.112Z,96986.00
2023-03-17T14:27:52.977Z,96996.00
2023-03-17T14:30:26.459Z,96988.00
2023-03-17T14:33:04.850Z,96976.00
2023-03-17T14:35:35.184Z,96983.00
2023-03-17T14:38:04.303Z,96986.00
2023-03-17T14:40:36.865Z,96981.00
2023-03-17T14:43:05.466Z,96985.00
2023-03-17T14:45:50.833Z,96990.00
2023-03-17T14:48:26.576Z,96980.00
2023-03-17T14:50:57.331Z,96979.00
2023-03-17T14:53:26.338Z,96973.00
2023-03-17T14:55:54.786Z,96979.00
2023-03-17T14:58:28.335Z,96973.00
2023-03-17T15:01:04.188Z,96971.00
2023-03-17T15:03:38.462Z,96965.00
2023-03-17T15:06:24.163Z,96968.00
2023-03-17T15:08:53.672Z,96955.00
2023-03-17T15:11:26.999Z,96951.00
2023-03-17T15:14:06.943Z,96946.00
2023-03-17T15:16:37.817Z,96958.00
2023-03-17T15:19:10.215Z,96956.00
2023-03-17T15:21:42.817Z,96956.00
2023-03-17T15:24:40.745Z,96948.00
2023-03-17T15:27:16.855Z,96951.00
2023-03-17T15:29:45.250Z,96942.00
2023-03-17T15:32:20.041Z,96953.00
2023-03-17T15:34:49.446Z,96939.00
2023-03-17T15:37:20.498Z,96943.00
2023-03-17T15:39:50.566Z,96943.00
2023-03-17T15:42:21.654Z,96926.00
2023-03-17T15:44:49.809Z,96934.00
2023-03-17T15:47:22.858Z,96943.00
2023-03-17T15:49:52.499Z,96936.00
2023-03-17T15:52:24.992Z,96928.00
2023-03-17T15:54:54.768Z,96941.00
2023-03-17T15:57:23.857Z,96931.00
2023-03-17T15:59:52.581Z,96932.00
2023-03-17T16:02:33.423Z,96940.00
2023-03-17T16:05:06.248Z,96937.00
2023-03-17T16:07:34.454Z,96932.00
2023-03-17T16:10:02.743Z,96942.00
2023-03-17T16:12:31.022Z,96935.00
2023-03-17T16:15:00.704Z,96935.00
2023-03-17T16:17:32.291Z,96936.00
2023-03-17T16:20:01.327Z,96927.00
2023-03-17T16:22:42.564Z,96930.00
2023-03-17T16:25:25.945Z,96914.00
2023-03-17T16:27:56.701Z,96927.00
2023-03-17T16:30:30.057Z,96921.00
2023-03-17T16:33:05.377Z,96924.00
2023-03-17T16:35:33.558Z,96918.00
2023-03-17T16:38:01.700Z,96909.00
2023-03-17T16:40:36.479Z,96914.00
2023-03-17T16:43:19.135Z,96911.00
2023-03-17T16:45:55.349Z,96904.00
2023-03-17T16:48:25.491Z,96908.00
2023-03-17T16:50:55.161Z,96921.00
2023-03-17T16:53:24.974Z,96925.00
2023-03-17T16:55:55.017Z,96928.00
2023-03-17T16:58:26.492Z,96932.00
2023-03-17T17:01:00.288Z,96935.00
2023-03-17T17:03:31.293Z,96936.00
2023-03-17T17:05:59.720Z,96938.00
2023-03-17T17:08:28.025Z,96939.00
2023-03-17T17:10:57.271Z,96931.00
2023-03-17T17:13:26.126Z,96932.00
2023-03-17T17:15:56.203Z,96934.00
2023-03-17T17:18:24.813Z,96928.00
2023-03-17T17:20:56.672Z,96937.00
2023-03-17T17:23:28.241Z,96926.00
2023-03-17T17:25:56.628Z,96933.00
2023-03-17T17:28:27.112Z,96939.00
2023-03-17T17:30:55.538Z,96943.00
2023-03-17T17:33:24.311Z,96936.00
2023-03-17T17:35:54.340Z,96944.00
2023-03-17T17:38:26.273Z,96955.00
2023-03-17T17:40:56.432Z,96941.00
2023-03-17T17:43:25.413Z,96955.00
2023-03-17T17:45:54.345Z,96939.00
2023-03-17T17:48:26.338Z,96936.00
2023-03-17T17:50:57.703Z,96955.00
2023-03-17T17:53:26.232Z,96945.00
2023-03-17T17:55:54.456Z,96950.00
2023-03-17T17:58:26.469Z,96955.00
2023-03-17T18:00:56.900Z,96949.00
2023-03-17T18:03:26.194Z,96951.00
2023-03-17T18:05:59.021Z,96947.00
2023-03-17T18:08:27.495Z,96951.00
2023-03-17T18:10:58.668Z,96951.00
2023-03-17T18:13:27.113Z,96957.00
2023-03-17T18:15:55.297Z,96961.00
2023-03-17T18:18:23.870Z,96958.00
2023-03-17T18:20:53.809Z,96948.00
2023-03-17T18:23:23.372Z,96949.00
2023-03-17T18:25:51.992Z,96962.00
2023-03-17T18:28:20.208Z,96959.00
2023-03-17T18:30:48.507Z,96957.00
2023-03-17T18:33:20.476Z,96949.00
2023-03-17T18:35:52.091Z,96947.00
2023-03-17T18:38:20.438Z,96957.00
2023-03-17T18:40:50.119Z,96945.00
2023-03-17T18:43:18.416Z,96943.00
2023-03-17T18:45:46.848Z,96946.00
2023-03-17T18:48:15.224Z,96950.00
2023-03-17T18:50:43.693Z,96955.00
2023-03-17T18:53:12.157Z,96940.00
2023-03-17T18:55:41.087Z,96951.00
2023-03-17T18:58:10.812Z,96940.00
2023-03-17T19:00:39.316Z,96933.00
2023-03-17T19:03:08.002Z,96944.00
2023-03-17T19:05:39.418Z,96947.00
2023-03-17T19:08:11.521Z,96954.00
2023-03-17T19:10:43.006Z,96950.00
2023-03-17T19:13:13.274Z,96958.00
2023-03-17T19:15:42.115Z,96939.00
2023-03-17T19:18:10.678Z,96957.00
2023-03-17T19:20:38.928Z,96963.00
2023-03-17T19:23:07.880Z,96955.00
2023-03-17T19:25:36.810Z,96950.00
2023-03-17T19:28:06.251Z,96965.00
2023-03-17T19:30:35.985Z,96962.00
2023-03-17T19:33:04.445Z,96965.00
2023-03-17T19:35:33.002Z,96977.00
2023-03-17T19:38:01.265Z,96966.00
2023-03-17T19:40:29.537Z,96974.00
2023-03-17T19:42:57.958Z,96978.00
2023-03-17T19:45:26.282Z,96981.00
2023-03-17T19:47:56.023Z,96984.00
2023-03-17T19:50:24.553Z,96987.00
2023-03-17T19:52:53.695Z,96983.00
2023-03-17T19:55:24.565Z,96981.00
2023-03-17T19:57:53.069Z,96975.00
2023-03-17T20:00:22.598Z,96984.00
2023-03-17T20:02:51.977Z,96983.00
2023-03-17T20:05:21.797Z,96991.00
2023-03-17T20:07:50.002Z,96991.00
2023-03-17T20:10:18.759Z,96988.00
2023-03-17T20:12:46.937Z,96974.00
2023-03-17T20:15:16.409Z,96989.00
2023-03-17T20:17:44.860Z,96982.00
2023-03-17T20:20:15.374Z,96991.00
2023-03-17T20:22:45.198Z,96997.00
2023-03-17T20:25:13.654Z,96984.00
2023-03-17T20:27:42.413Z,96988.00
2023-03-17T20:30:13.099Z,96993.00
2023-03-17T20:32:41.421Z,96977.00
2023-03-17T20:35:10.349Z,96986.00
2023-03-17T20:37:38.706Z,96983.00
2023-03-17T20:40:10.696Z,96992.00
2023-03-17T20:42:38.939Z,96977.00
2023-03-17T20:45:08.857Z,96989.00
2023-03-17T20:47:37.611Z,96982.00
2023-03-17T20:50:08.595Z,96978.00
2023-03-17T20:52:38.126Z,96989.00
2023-03-17T20:55:09.233Z,96997.00
2023-03-17T20:57:37.968Z,96998.00
2023-03-17T21:00:08.208Z,97004.00
2023-03-17T21:02:36.503Z,96987.00
2023-03-17T21:05:05.327Z,96990.00
2023-03-17T21:07:33.638Z,96989.00
2023-03-17T21:10:02.296Z,96985.00
2023-03-17T21:12:31.844Z,96973.00
2023-03-17T21:15:00.707Z,96985.00
2023-03-17T21:17:28.907Z,96992.00
2023-03-17T21:19:57.085Z,96979.00
2023-03-17T21:22:25.628Z,96979.00
2023-03-17T21:24:54.185Z,96992.00
2023-03-17T21:27:22.422Z,96979.00
2023-03-17T21:29:52.164Z,96980.00
2023-03-17T21:32:20.425Z,96981.00
2023-03-17T21:34:48.556Z,96996.00
2023-03-17T21:37:18.257Z,96984.00
2023-03-17T21:39:46.578Z,96991.00
2023-03-17T21:42:14.720Z,96985.00
2023-03-17T21:44:45.622Z,96985.00
2023-03-17T21:47:15.371Z,96988.00
2023-03-17T21:49:43.473Z,96993.00
2023-03-17T21:52:12.612Z,96991.00
2023-03-17T21:54:40.802Z,96983.00
2023-03-17T21:57:09.268Z,96987.00
2023-03-17T21:59:37.708Z,96989.00
2023-03-17T22:02:05.958Z,96991.00
2023-03-17T22:04:35.481Z,96981.00
2023-03-17T22:07:04.477Z,96977.00
2023-03-17T22:09:32.647Z,96972.00
2023-03-17T22:12:00.788Z,96977.00
2023-03-17T22:14:28.973Z,96972.00
2023-03-17T22:16:57.217Z,96973.00
2023-03-17T22:19:25.555Z,96979.00
2023-03-17T22:21:55.822Z,96985.00
2023-03-17T22:24:25.391Z,96989.00
2023-03-17T22:26:53.979Z,96968.00
2023-03-17T22:29:22.151Z,96980.00
2023-03-17T22:31:50.707Z,96986.00
2023-03-17T22:34:19.289Z,96988.00
2023-03-17T22:36:47.409Z,96979.00
2023-03-17T22:39:17.324Z,96983.00
2023-03-17T22:41:45.763Z,96996.00
2023-03-17T22:44:14.066Z,96989.00
2023-03-17T22:46:42.704Z,96998.00
2023-03-17T22:49:11.483Z,96992.00
2023-03-17T22:51:41.168Z,97003.00
2023-03-17T22:54:11.260Z,97012.00
2023-03-17T22:56:41.034Z,97012.00
2023-03-17T22:59:09.206Z,97018.00
2023-03-17T23:01:37.383Z,97017.00
2023-03-17T23:04:07.693Z,97026.00
2023-03-17T23:06:37.906Z,97019.00
2023-03-17T23:09:06.284Z,97019.00
2023-03-17T23:11:34.447Z,97027.00
2023-03-17T23:14:04.373Z,97022.00
2023-03-17T23:16:32.817Z,97034.00
2023-03-17T23:19:01.175Z,97039.00
2023-03-17T23:21:33.896Z,97041.00
2023-03-17T23:24:03.869Z,97034.00
2023-03-17T23:26:35.794Z,97023.00
2023-03-17T23:29:06.918Z,97038.00
2023-03-17T23:31:36.798Z,97029.00
2023-03-17T23:34:06.612Z,97044.00
2023-03-17T23:36:39.861Z,97047.00
2023-03-17T23:39:09.670Z,97050.00
2023-03-17T23:41:38.239Z,97049.00
2023-03-17T23:44:08.372Z,97047.00
2023-03-17T23:46:37.135Z,97056.00
2023-03-17T23:49:07.172Z,97058.00
2023-03-17T23:51:35.665Z,97057.00
2023-03-17T23:54:04.074Z,97057.00
2023-03-17T23:56:33.404Z,97063.00
2023-03-17T23:59:01.628Z,97062.00
